Time;durP1;ratioP1;P1;durP2;ratioP2;P2;SDS_P1;SDS_P2;PMS_P1;PMS_P2;Temp;Humidity;BMP_temperature;BMP_pressure;BME280_temperature;BME280_humidity;BME280_pressure;Samples;Min_cycle;Max_cycle;Signal;HPM_P1;HPM_P2
2021/08/28 00:00:51;;;;;;;8.17;4.40;;;;;;;;;;10398931;28;20229;-69
2021/08/28 00:05:54;;;;;;;8.47;4.23;;;;;;;;;;10400600;28;20244;-69
2021/08/28 00:10:58;;;;;;;10.30;4.90;;;;;;;;;;10396162;28;20217;-69
2021/08/28 00:16:02;;;;;;;8.40;4.47;;;;;;;;;;10388694;28;20206;-69
2021/08/28 00:21:05;;;;;;;7.77;4.33;;;;;;;;;;10397799;28;20271;-69
2021/08/28 00:26:09;;;;;;;9.30;4.30;;;;;;;;;;10399842;28;20256;-67
2021/08/28 00:31:12;;;;;;;9.20;4.60;;;;;;;;;;10391636;28;20202;-69
2021/08/28 00:36:15;;;;;;;9.47;4.57;;;;;;;;;;10394879;28;20514;-68
2021/08/28 00:41:19;;;;;;;7.77;4.20;;;;;;;;;;10393043;28;20206;-67
2021/08/28 00:46:22;;;;;;;8.13;4.10;;;;;;;;;;10397263;28;20316;-70
2021/08/28 00:51:25;;;;;;;9.07;3.70;;;;;;;;;;10397143;28;20182;-69
2021/08/28 00:56:29;;;;;;;7.50;3.73;;;;;;;;;;10405836;28;20213;-69
2021/08/28 01:01:33;;;;;;;7.90;3.83;;;;;;;;;;10404084;28;20215;-68
2021/08/28 01:06:48;;;;;;;7.43;3.60;;;;;;;;;;10406673;28;20291;-67
2021/08/28 01:11:57;;;;;;;6.87;3.57;;;;;;;;;;10407099;28;20194;-69
2021/08/28 01:17:01;;;;;;;8.50;3.70;;;;;;;;;;10407413;28;20209;-70
2021/08/28 01:22:05;;;;;;;8.27;4.27;;;;;;;;;;10403579;28;20289;-70
2021/08/28 01:27:11;;;;;;;7.23;3.37;;;;;;;;;;10405956;28;20186;-69
2021/08/28 01:32:17;;;;;;;8.50;4.20;;;;;;;;;;10402028;28;20186;-68
2021/08/28 01:37:20;;;;;;;10.43;4.57;;;;;;;;;;10406502;28;20563;-70
2021/08/28 01:42:23;;;;;;;8.90;4.17;;;;;;;;;;10401881;28;20209;-71
2021/08/28 01:47:28;;;;;;;8.10;4.10;;;;;;;;;;10402553;28;20294;-69
2021/08/28 01:52:31;;;;;;;7.67;3.80;;;;;;;;;;10402692;28;20210;-70
2021/08/28 01:57:33;;;;;;;8.77;4.13;;;;;;;;;;10399935;28;20205;-67
2021/08/28 02:02:38;;;;;;;8.13;4.30;;;;;;;;;;10398168;28;20221;-70
2021/08/28 02:07:48;;;;;;;9.67;4.37;;;;;;;;;;10395453;28;20654;-70
2021/08/28 02:12:53;;;;;;;10.20;5.00;;;;;;;;;;10399907;28;20288;-69
2021/08/28 02:17:59;;;;;;;8.70;4.17;;;;;;;;;;10399563;28;20606;-69
2021/08/28 02:23:05;;;;;;;9.73;4.77;;;;;;;;;;10400291;28;20621;-69
2021/08/28 02:28:11;;;;;;;9.40;5.03;;;;;;;;;;10398259;28;20251;-69
2021/08/28 02:33:15;;;;;;;9.47;4.47;;;;;;;;;;10400240;28;20574;-70
2021/08/28 02:38:19;;;;;;;8.97;4.07;;;;;;;;;;10401501;28;20889;-70
2021/08/28 02:43:21;;;;;;;9.40;4.87;;;;;;;;;;10400122;28;20218;-69
2021/08/28 02:48:27;;;;;;;9.83;5.37;;;;;;;;;;10402397;28;20201;-69
2021/08/28 02:53:31;;;;;;;9.47;4.77;;;;;;;;;;10401477;28;20283;-70
2021/08/28 02:58:34;;;;;;;9.23;4.77;;;;;;;;;;10403765;28;20213;-70
2021/08/28 03:03:39;;;;;;;10.17;5.53;;;;;;;;;;10399173;28;20255;-70
2021/08/28 03:08:42;;;;;;;9.47;5.27;;;;;;;;;;10399086;28;20202;-69
2021/08/28 03:13:45;;;;;;;10.27;5.13;;;;;;;;;;10399623;28;20211;-70
2021/08/28 03:18:50;;;;;;;8.90;4.73;;;;;;;;;;10400376;28;20212;-69
2021/08/28 03:23:55;;;;;;;9.60;5.17;;;;;;;;;;10397939;28;20700;-68
2021/08/28 03:29:19;;;;;;;10.27;5.40;;;;;;;;;;10397285;28;20270;-70
2021/08/28 03:34:23;;;;;;;12.40;4.40;;;;;;;;;;10400061;28;20290;-69
2021/08/28 03:39:26;;;;;;;12.00;5.00;;;;;;;;;;10394578;28;20502;-69
2021/08/28 03:44:29;;;;;;;12.47;5.90;;;;;;;;;;10399873;28;20271;-69
2021/08/28 03:49:33;;;;;;;11.83;5.87;;;;;;;;;;10401496;28;20198;-69
2021/08/28 03:54:36;;;;;;;10.10;5.13;;;;;;;;;;10397407;28;20288;-70
2021/08/28 03:59:39;;;;;;;9.07;4.80;;;;;;;;;;10400373;28;20289;-69
2021/08/28 04:04:43;;;;;;;9.47;4.77;;;;;;;;;;10397879;28;20221;-69
2021/08/28 04:09:46;;;;;;;9.37;4.77;;;;;;;;;;10398397;28;20228;-70
2021/08/28 04:14:48;;;;;;;9.17;4.63;;;;;;;;;;10399308;28;20328;-69
2021/08/28 04:20:13;;;;;;;9.47;4.77;;;;;;;;;;10397318;28;20787;-69
2021/08/28 04:25:16;;;;;;;8.53;4.43;;;;;;;;;;10400799;28;20749;-70
2021/08/28 04:30:18;;;;;;;9.83;4.63;;;;;;;;;;10395679;28;20185;-70
2021/08/28 04:35:22;;;;;;;7.90;4.33;;;;;;;;;;10398343;28;20278;-69
2021/08/28 04:40:25;;;;;;;8.30;4.40;;;;;;;;;;10398450;28;20228;-70
2021/08/28 04:45:28;;;;;;;9.00;4.30;;;;;;;;;;10395401;28;20296;-69
2021/08/28 04:50:32;;;;;;;9.53;4.50;;;;;;;;;;10395677;28;20273;-69
2021/08/28 04:55:35;;;;;;;8.73;4.53;;;;;;;;;;10396486;28;20217;-70
2021/08/28 05:00:38;;;;;;;8.93;4.43;;;;;;;;;;10398256;28;20182;-70
2021/08/28 05:05:42;;;;;;;9.80;5.10;;;;;;;;;;10393790;28;20705;-69
2021/08/28 05:10:45;;;;;;;8.87;4.57;;;;;;;;;;10392992;28;20213;-69
2021/08/28 05:15:47;;;;;;;10.17;4.63;;;;;;;;;;10396116;28;20241;-69
2021/08/28 05:20:51;;;;;;;9.97;5.27;;;;;;;;;;10393637;28;20281;-71
2021/08/28 05:25:54;;;;;;;9.27;4.93;;;;;;;;;;10409513;28;20237;-69
2021/08/28 05:30:57;;;;;;;9.33;4.90;;;;;;;;;;10392596;28;20197;-69
2021/08/28 05:36:01;;;;;;;9.40;4.67;;;;;;;;;;10393997;28;20206;-69
2021/08/28 05:41:04;;;;;;;8.53;4.60;;;;;;;;;;10395840;28;20694;-68
2021/08/28 05:46:07;;;;;;;9.07;4.80;;;;;;;;;;10399869;28;20688;-68
2021/08/28 05:51:11;;;;;;;8.70;4.63;;;;;;;;;;10398924;28;20194;-69
2021/08/28 05:56:13;;;;;;;8.73;3.83;;;;;;;;;;10399911;28;20632;-70
2021/08/28 06:01:16;;;;;;;8.63;4.20;;;;;;;;;;10398852;28;20256;-68
2021/08/28 06:06:21;;;;;;;6.57;3.47;;;;;;;;;;10395017;28;20206;-71
2021/08/28 06:11:25;;;;;;;7.27;3.60;;;;;;;;;;10396134;28;20189;-69
2021/08/28 06:16:28;;;;;;;7.93;3.37;;;;;;;;;;10396127;28;20218;-70
2021/08/28 06:21:33;;;;;;;6.90;3.53;;;;;;;;;;10399429;28;20271;-69
2021/08/28 06:26:36;;;;;;;5.83;3.20;;;;;;;;;;10399577;28;20210;-70
2021/08/28 06:31:39;;;;;;;5.87;2.90;;;;;;;;;;10394557;28;20186;-68
2021/08/28 06:36:43;;;;;;;6.03;2.80;;;;;;;;;;10391324;28;20569;-69
2021/08/28 06:41:46;;;;;;;6.73;3.00;;;;;;;;;;10396701;28;20202;-70
2021/08/28 06:46:49;;;;;;;5.57;2.80;;;;;;;;;;10401115;28;20252;-69
2021/08/28 06:51:54;;;;;;;6.23;3.07;;;;;;;;;;10396541;28;20693;-70
2021/08/28 06:56:57;;;;;;;4.43;2.67;;;;;;;;;;10396686;28;20259;-69
2021/08/28 07:02:00;;;;;;;4.67;2.47;;;;;;;;;;10395279;28;20190;-70
2021/08/28 07:07:05;;;;;;;4.43;2.20;;;;;;;;;;10398438;28;20221;-69
2021/08/28 07:12:08;;;;;;;5.43;2.60;;;;;;;;;;10396336;28;20186;-70
2021/08/28 07:17:10;;;;;;;4.77;2.40;;;;;;;;;;10397817;28;20646;-69
2021/08/28 07:22:15;;;;;;;4.60;2.30;;;;;;;;;;10394951;28;20275;-70
2021/08/28 07:27:17;;;;;;;4.80;2.53;;;;;;;;;;10397750;28;20205;-69
2021/08/28 07:32:20;;;;;;;3.37;2.13;;;;;;;;;;10396222;28;20248;-69
2021/08/28 07:37:24;;;;;;;4.70;2.70;;;;;;;;;;10398901;28;20653;-69
2021/08/28 07:42:27;;;;;;;4.47;2.70;;;;;;;;;;10393347;28;20213;-69
2021/08/28 07:47:30;;;;;;;4.53;2.60;;;;;;;;;;10396132;28;20237;-69
2021/08/28 07:52:35;;;;;;;5.77;2.80;;;;;;;;;;10391374;28;20201;-69
2021/08/28 07:57:38;;;;;;;3.97;2.40;;;;;;;;;;10392779;28;20182;-69
2021/08/28 08:02:41;;;;;;;3.73;2.30;;;;;;;;;;10391438;28;20301;-70
2021/08/28 08:07:45;;;;;;;3.43;2.00;;;;;;;;;;10390590;28;20218;-69
2021/08/28 08:12:48;;;;;;;4.43;2.30;;;;;;;;;;10394229;28;20636;-69
2021/08/28 08:17:51;;;;;;;3.00;1.92;;;;;;;;;;10392043;28;20190;-69
2021/08/28 08:22:55;;;;;;;3.30;2.07;;;;;;;;;;10397848;28;20213;-71
2021/08/28 08:27:58;;;;;;;4.93;2.50;;;;;;;;;;10393585;28;20296;-69
2021/08/28 08:33:01;;;;;;;3.77;2.37;;;;;;;;;;10390848;28;20237;-70
2021/08/28 08:38:05;;;;;;;2.97;2.00;;;;;;;;;;10392034;28;20202;-67
2021/08/28 08:43:08;;;;;;;4.17;2.20;;;;;;;;;;10390849;28;20312;-71
2021/08/28 08:48:11;;;;;;;2.80;1.73;;;;;;;;;;10392834;28;20296;-68
2021/08/28 08:53:16;;;;;;;3.43;1.70;;;;;;;;;;10388949;28;20713;-68
2021/08/28 08:58:19;;;;;;;3.00;1.98;;;;;;;;;;10394477;28;20263;-69
2021/08/28 09:03:22;;;;;;;2.15;1.70;;;;;;;;;;10392174;28;20213;-68
2021/08/28 09:08:26;;;;;;;4.03;2.00;;;;;;;;;;10395284;28;20650;-69
2021/08/28 09:13:29;;;;;;;3.70;2.10;;;;;;;;;;10394266;28;20269;-69
2021/08/28 09:18:49;;;;;;;2.85;1.92;;;;;;;;;;10400597;28;20197;-69
2021/08/28 09:23:58;;;;;;;2.38;2.00;;;;;;;;;;10402481;28;20581;-70
2021/08/28 09:29:02;;;;;;;3.83;1.85;;;;;;;;;;10401891;28;20645;-70
2021/08/28 09:34:18;;;;;;;2.75;1.70;;;;;;;;;;10398386;28;20221;-69
2021/08/28 09:39:35;;;;;;;3.17;1.70;;;;;;;;;;10397262;28;20755;-69
2021/08/28 09:44:39;;;;;;;2.27;1.70;;;;;;;;;;10398861;28;20216;-70
2021/08/28 09:49:42;;;;;;;4.35;2.72;;;;;;;;;;10404317;28;20272;-70
2021/08/28 09:54:47;;;;;;;3.50;1.77;;;;;;;;;;10398167;28;20365;-69
2021/08/28 09:59:50;;;;;;;2.53;1.80;;;;;;;;;;10401330;28;20247;-70
2021/08/28 10:04:54;;;;;;;1.50;1.40;;;;;;;;;;10397435;28;20577;-70
2021/08/28 10:09:58;;;;;;;1.95;1.50;;;;;;;;;;10403261;28;20199;-70
2021/08/28 10:15:07;;;;;;;3.10;1.85;;;;;;;;;;10401773;28;20214;-70
2021/08/28 10:20:10;;;;;;;2.67;1.80;;;;;;;;;;10406134;28;20208;-69
2021/08/28 10:25:14;;;;;;;5.57;2.03;;;;;;;;;;10400789;28;20295;-70
2021/08/28 10:30:19;;;;;;;2.17;1.50;;;;;;;;;;10398045;28;20675;-70
2021/08/28 10:35:22;;;;;;;2.60;1.60;;;;;;;;;;10398475;28;20217;-70
2021/08/28 10:40:28;;;;;;;2.17;1.65;;;;;;;;;;10399949;28;20275;-69
2021/08/28 10:45:32;;;;;;;1.63;1.40;;;;;;;;;;10396849;28;20238;-68
2021/08/28 10:50:36;;;;;;;2.05;1.20;;;;;;;;;;10400497;28;20268;-68
2021/08/28 10:55:42;;;;;;;2.15;1.40;;;;;;;;;;10395141;28;20585;-67
2021/08/28 11:00:45;;;;;;;1.52;1.30;;;;;;;;;;10397888;28;20201;-67
2021/08/28 11:06:08;;;;;;;2.63;1.50;;;;;;;;;;10397777;28;20217;-69
2021/08/28 11:11:19;;;;;;;2.53;1.40;;;;;;;;;;10397106;28;20247;-68
2021/08/28 11:16:37;;;;;;;1.97;1.00;;;;;;;;;;10393889;28;20206;-67
2021/08/28 11:21:42;;;;;;;1.30;0.90;;;;;;;;;;10398568;28;20247;-69
2021/08/28 11:26:50;;;;;;;0.70;0.70;;;;;;;;;;10396879;28;20263;-69
2021/08/28 11:32:07;;;;;;;1.60;1.10;;;;;;;;;;10399381;28;20681;-70
2021/08/28 11:37:28;;;;;;;0.93;0.80;;;;;;;;;;10394939;28;20225;-70
2021/08/28 11:42:34;;;;;;;1.00;0.83;;;;;;;;;;10397774;28;20249;-68
2021/08/28 11:47:38;;;;;;;1.63;0.90;;;;;;;;;;10398954;28;20293;-70
2021/08/28 11:52:41;;;;;;;1.23;0.90;;;;;;;;;;10396678;28;20218;-71
2021/08/28 11:57:59;;;;;;;1.37;1.03;;;;;;;;;;10393679;28;20194;-70
2021/08/28 12:03:02;;;;;;;1.13;0.87;;;;;;;;;;10394563;28;20221;-70
2021/08/28 12:08:05;;;;;;;1.37;1.00;;;;;;;;;;10393997;28;20596;-69
2021/08/28 12:13:09;;;;;;;1.33;0.87;;;;;;;;;;10389654;28;20303;-70
2021/08/28 12:18:12;;;;;;;1.53;1.10;;;;;;;;;;10393876;28;20198;-69
2021/08/28 12:23:15;;;;;;;2.80;1.40;;;;;;;;;;10394369;28;20693;-69
2021/08/28 12:28:19;;;;;;;4.17;1.97;;;;;;;;;;10395393;28;20302;-71
2021/08/28 12:33:25;;;;;;;0.90;0.90;;;;;;;;;;10391181;28;20232;-70
2021/08/28 12:38:30;;;;;;;2.40;1.23;;;;;;;;;;10392107;28;20260;-68
2021/08/28 12:43:34;;;;;;;0.80;0.80;;;;;;;;;;10394857;28;20226;-70
2021/08/28 12:48:37;;;;;;;1.03;0.93;;;;;;;;;;10399832;28;20209;-70
2021/08/28 12:53:40;;;;;;;1.10;1.00;;;;;;;;;;10402669;28;20392;-71
2021/08/28 12:58:44;;;;;;;1.00;0.90;;;;;;;;;;10399684;28;20190;-68
2021/08/28 13:03:48;;;;;;;0.60;0.60;;;;;;;;;;10402933;28;20228;-70
2021/08/28 13:08:51;;;;;;;0.70;0.70;;;;;;;;;;10403805;28;20296;-69
2021/08/28 13:14:04;;;;;;;2.60;1.60;;;;;;;;;;10399477;28;20214;-69
2021/08/28 13:19:07;;;;;;;1.57;1.00;;;;;;;;;;10406036;28;20244;-70
2021/08/28 13:24:11;;;;;;;1.70;1.00;;;;;;;;;;10405431;28;20233;-68
2021/08/28 13:29:26;;;;;;;2.10;1.10;;;;;;;;;;10405051;28;20225;-69
2021/08/28 13:34:34;;;;;;;1.43;0.87;;;;;;;;;;10404247;28;20244;-70
2021/08/28 13:39:37;;;;;;;2.60;1.00;;;;;;;;;;10397484;28;20316;-69
2021/08/28 13:44:41;;;;;;;2.17;1.10;;;;;;;;;;10404257;28;20691;-70
2021/08/28 13:49:44;;;;;;;2.87;0.97;;;;;;;;;;10407493;28;20759;-69
2021/08/28 13:54:47;;;;;;;1.83;1.23;;;;;;;;;;10405351;28;20295;-70
2021/08/28 13:59:51;;;;;;;4.17;1.57;;;;;;;;;;10398981;28;20225;-70
2021/08/28 14:04:54;;;;;;;1.33;1.20;;;;;;;;;;10402695;28;20225;-70
2021/08/28 14:09:58;;;;;;;1.43;1.00;;;;;;;;;;10404107;28;20229;-69
2021/08/28 14:15:02;;;;;;;1.90;1.13;;;;;;;;;;10402748;28;20764;-70
2021/08/28 14:20:07;;;;;;;2.63;1.13;;;;;;;;;;10400677;28;20715;-69
2021/08/28 14:25:10;;;;;;;2.50;1.10;;;;;;;;;;10404021;28;20275;-70
2021/08/28 14:30:14;;;;;;;1.17;1.03;;;;;;;;;;10399209;28;20281;-70
2021/08/28 14:35:19;;;;;;;2.53;1.53;;;;;;;;;;10403119;28;20603;-70
2021/08/28 14:40:22;;;;;;;2.53;1.10;;;;;;;;;;10402649;28;20197;-70
2021/08/28 14:45:26;;;;;;;2.67;1.50;;;;;;;;;;10399855;28;20213;-71
2021/08/28 14:50:29;;;;;;;2.20;1.40;;;;;;;;;;10404522;28;20267;-69
2021/08/28 14:55:32;;;;;;;3.57;1.77;;;;;;;;;;10401622;28;20218;-69
2021/08/28 15:00:36;;;;;;;1.47;1.17;;;;;;;;;;10400776;28;20193;-70
2021/08/28 15:05:39;;;;;;;2.10;0.97;;;;;;;;;;10401780;28;20237;-69
2021/08/28 15:10:42;;;;;;;2.50;1.40;;;;;;;;;;10401600;28;20194;-69
2021/08/28 15:15:46;;;;;;;2.63;1.33;;;;;;;;;;10400287;28;20217;-70
2021/08/28 15:20:49;;;;;;;4.37;2.47;;;;;;;;;;10403390;28;20248;-69
2021/08/28 15:25:51;;;;;;;1.77;1.30;;;;;;;;;;10396336;28;20267;-71
2021/08/28 15:30:56;;;;;;;2.70;1.40;;;;;;;;;;10398620;28;20194;-70
2021/08/28 15:35:59;;;;;;;1.23;1.00;;;;;;;;;;10401793;28;20225;-70
2021/08/28 15:41:02;;;;;;;2.80;1.20;;;;;;;;;;10394803;28;20292;-68
2021/08/28 15:46:06;;;;;;;1.77;1.30;;;;;;;;;;10398349;28;20359;-71
2021/08/28 15:51:09;;;;;;;2.53;1.50;;;;;;;;;;10399801;28;20194;-71
2021/08/28 15:56:11;;;;;;;3.23;1.60;;;;;;;;;;10397365;28;20260;-71
2021/08/28 16:01:17;;;;;;;3.50;2.00;;;;;;;;;;10400270;28;20194;-70
2021/08/28 16:06:20;;;;;;;3.07;1.70;;;;;;;;;;10401116;28;20212;-71
2021/08/28 16:11:24;;;;;;;2.57;1.30;;;;;;;;;;10399085;28;20197;-70
2021/08/28 16:16:29;;;;;;;3.00;1.50;;;;;;;;;;10398559;28;20543;-69
2021/08/28 16:21:32;;;;;;;4.90;2.20;;;;;;;;;;10392616;28;20190;-70
2021/08/28 16:26:35;;;;;;;3.73;1.63;;;;;;;;;;10395964;28;20212;-69
2021/08/28 16:31:39;;;;;;;3.50;1.33;;;;;;;;;;10395896;28;20647;-69
2021/08/28 16:36:42;;;;;;;9.40;4.37;;;;;;;;;;10392109;28;20277;-69
2021/08/28 16:41:49;;;;;;;6.97;2.87;;;;;;;;;;10396344;28;20257;-69
2021/08/28 16:46:53;;;;;;;2.40;1.50;;;;;;;;;;10394042;28;20256;-71
2021/08/28 16:51:57;;;;;;;4.77;1.97;;;;;;;;;;10393707;28;20198;-69
2021/08/28 16:57:00;;;;;;;3.30;1.70;;;;;;;;;;10397871;28;20646;-71
2021/08/28 17:02:04;;;;;;;6.13;2.30;;;;;;;;;;10392403;28;20193;-69
2021/08/28 17:07:07;;;;;;;3.87;2.00;;;;;;;;;;10397364;28;20216;-67
2021/08/28 17:12:10;;;;;;;4.80;2.20;;;;;;;;;;10393504;28;20599;-68
2021/08/28 17:17:14;;;;;;;3.23;1.90;;;;;;;;;;10397219;28;20229;-69
2021/08/28 17:22:17;;;;;;;3.63;1.40;;;;;;;;;;10396049;28;20226;-71
2021/08/28 17:27:20;;;;;;;3.67;1.60;;;;;;;;;;10398605;28;20206;-70
2021/08/28 17:32:24;;;;;;;2.53;1.33;;;;;;;;;;10396928;28;20198;-69
2021/08/28 17:37:27;;;;;;;4.30;1.53;;;;;;;;;;10400329;28;20745;-71
2021/08/28 17:42:30;;;;;;;3.57;1.60;;;;;;;;;;10401991;28;20198;-70
2021/08/28 17:47:34;;;;;;;1.83;1.27;;;;;;;;;;10399733;28;20214;-70
2021/08/28 17:52:37;;;;;;;3.07;1.20;;;;;;;;;;10403293;28;20233;-70
2021/08/28 17:57:40;;;;;;;4.47;1.70;;;;;;;;;;10406576;28;20579;-70
2021/08/28 18:02:45;;;;;;;3.90;1.63;;;;;;;;;;10401174;28;20665;-71
2021/08/28 18:07:48;;;;;;;2.13;1.40;;;;;;;;;;10405647;28;20209;-70
2021/08/28 18:12:52;;;;;;;3.40;1.47;;;;;;;;;;10403665;28;20224;-71
2021/08/28 18:17:56;;;;;;;1.87;1.40;;;;;;;;;;10401690;28;20198;-68
2021/08/28 18:22:59;;;;;;;2.43;1.57;;;;;;;;;;10401177;28;20213;-70
2021/08/28 18:28:02;;;;;;;4.83;2.37;;;;;;;;;;10405398;28;20287;-70
2021/08/28 18:33:07;;;;;;;4.90;2.10;;;;;;;;;;10395686;28;20709;-71
2021/08/28 18:38:10;;;;;;;5.03;2.40;;;;;;;;;;10398793;28;20222;-70
2021/08/28 18:43:14;;;;;;;6.27;2.73;;;;;;;;;;10399012;28;20220;-70
2021/08/28 18:48:19;;;;;;;5.27;2.10;;;;;;;;;;10399631;28;20287;-70
2021/08/28 18:53:22;;;;;;;3.33;1.80;;;;;;;;;;10414143;28;20283;-70
2021/08/28 18:58:25;;;;;;;4.60;2.10;;;;;;;;;;10398677;28;20196;-68
2021/08/28 19:03:29;;;;;;;6.30;2.23;;;;;;;;;;10399587;28;20583;-70
2021/08/28 19:08:32;;;;;;;5.93;2.47;;;;;;;;;;10402058;28;20237;-71
2021/08/28 19:13:35;;;;;;;6.87;2.97;;;;;;;;;;10396767;28;20221;-70
2021/08/28 19:18:39;;;;;;;7.30;3.10;;;;;;;;;;10398227;28;20228;-71
2021/08/28 19:23:42;;;;;;;7.33;3.87;;;;;;;;;;10412185;28;20225;-70
2021/08/28 19:28:45;;;;;;;6.60;2.77;;;;;;;;;;10399903;28;20491;-72
2021/08/28 19:33:49;;;;;;;6.00;2.87;;;;;;;;;;10398158;28;20784;-72
2021/08/28 19:38:52;;;;;;;5.57;2.70;;;;;;;;;;10399803;28;20190;-72
2021/08/28 19:43:55;;;;;;;4.83;2.47;;;;;;;;;;10397327;28;20273;-71
2021/08/28 19:48:59;;;;;;;5.57;3.10;;;;;;;;;;10393628;28;20236;-71
2021/08/28 19:54:02;;;;;;;3.40;1.90;;;;;;;;;;10401704;28;20214;-71
2021/08/28 19:59:05;;;;;;;4.47;2.30;;;;;;;;;;10403393;28;20190;-69
2021/08/28 20:04:09;;;;;;;3.87;2.20;;;;;;;;;;10398396;28;20222;-71
2021/08/28 20:09:12;;;;;;;4.50;2.70;;;;;;;;;;10395834;28;20236;-71
2021/08/28 20:14:14;;;;;;;4.67;2.40;;;;;;;;;;10399019;28;20225;-71
2021/08/28 20:19:18;;;;;;;5.60;2.47;;;;;;;;;;10398528;28;20248;-69
2021/08/28 20:24:21;;;;;;;4.80;2.30;;;;;;;;;;10397107;28;20220;-70
2021/08/28 20:29:24;;;;;;;5.23;2.43;;;;;;;;;;10393602;28;20223;-71
2021/08/28 20:34:28;;;;;;;5.70;2.80;;;;;;;;;;10396723;28;20309;-72
2021/08/28 20:39:31;;;;;;;6.67;3.43;;;;;;;;;;10395801;28;20201;-71
2021/08/28 20:44:34;;;;;;;6.37;2.93;;;;;;;;;;10393766;28;20695;-70
2021/08/28 20:49:38;;;;;;;5.60;3.13;;;;;;;;;;10397406;28;20209;-70
2021/08/28 20:54:41;;;;;;;6.30;3.27;;;;;;;;;;10396364;28;20245;-69
2021/08/28 20:59:44;;;;;;;22.37;13.97;;;;;;;;;;10394972;28;20198;-70
2021/08/28 21:04:48;;;;;;;25.43;14.23;;;;;;;;;;10397866;28;20226;-70
2021/08/28 21:09:50;;;;;;;10.67;5.97;;;;;;;;;;10397787;28;20264;-70
2021/08/28 21:14:53;;;;;;;6.63;3.17;;;;;;;;;;10402768;28;20218;-69
2021/08/28 21:19:57;;;;;;;7.53;3.60;;;;;;;;;;10406184;28;20633;-70
2021/08/28 21:25:00;;;;;;;6.83;2.87;;;;;;;;;;10402861;28;20573;-70
2021/08/28 21:30:04;;;;;;;17.63;11.50;;;;;;;;;;10401414;28;20551;-70
2021/08/28 21:35:10;;;;;;;7.17;4.13;;;;;;;;;;10407425;28;20271;-70
2021/08/28 21:40:14;;;;;;;6.33;3.30;;;;;;;;;;10423711;28;20243;-70
2021/08/28 21:45:16;;;;;;;6.77;3.10;;;;;;;;;;10404029;28;20587;-69
2021/08/28 21:50:21;;;;;;;7.43;3.40;;;;;;;;;;10402742;28;20233;-68
2021/08/28 21:55:24;;;;;;;6.67;3.03;;;;;;;;;;10405457;28;20217;-71
2021/08/28 22:00:30;;;;;;;6.47;3.40;;;;;;;;;;10399963;28;20214;-69
2021/08/28 22:05:34;;;;;;;6.43;3.37;;;;;;;;;;10400394;28;20215;-70
2021/08/28 22:10:37;;;;;;;6.57;3.50;;;;;;;;;;10402910;28;20236;-70
2021/08/28 22:15:41;;;;;;;4.87;2.90;;;;;;;;;;10400688;28;20234;-71
2021/08/28 22:20:45;;;;;;;5.80;2.97;;;;;;;;;;10399487;28;20561;-71
2021/08/28 22:25:48;;;;;;;6.23;3.40;;;;;;;;;;10403717;28;20296;-69
2021/08/28 22:30:50;;;;;;;5.97;3.23;;;;;;;;;;10401126;28;20555;-70
2021/08/28 22:35:54;;;;;;;6.10;2.93;;;;;;;;;;10402734;28;20680;-70
2021/08/28 22:40:57;;;;;;;10.50;6.13;;;;;;;;;;10402142;28;20252;-69
2021/08/28 22:46:00;;;;;;;6.40;3.20;;;;;;;;;;10402081;28;20572;-70
2021/08/28 22:51:04;;;;;;;5.67;2.80;;;;;;;;;;10400880;28;20247;-70
2021/08/28 22:56:07;;;;;;;5.67;3.07;;;;;;;;;;10403226;28;20285;-70
2021/08/28 23:01:10;;;;;;;7.60;3.40;;;;;;;;;;10399197;28;20209;-69
2021/08/28 23:06:14;;;;;;;6.80;3.60;;;;;;;;;;10400123;28;20248;-69
2021/08/28 23:11:17;;;;;;;6.13;3.40;;;;;;;;;;10398583;28;20210;-69
2021/08/28 23:16:20;;;;;;;6.23;3.40;;;;;;;;;;10402264;28;20287;-70
2021/08/28 23:21:24;;;;;;;6.70;3.37;;;;;;;;;;10403147;28;20280;-70
2021/08/28 23:26:27;;;;;;;6.50;3.10;;;;;;;;;;10401673;28;20267;-72
2021/08/28 23:31:30;;;;;;;7.23;3.47;;;;;;;;;;10398638;28;20197;-68
2021/08/28 23:36:34;;;;;;;6.97;3.47;;;;;;;;;;10400712;28;20218;-70
2021/08/28 23:41:37;;;;;;;5.83;3.00;;;;;;;;;;10400409;28;20221;-68
2021/08/28 23:46:40;;;;;;;5.87;2.80;;;;;;;;;;10400367;28;20271;-70
2021/08/28 23:51:44;;;;;;;5.03;3.00;;;;;;;;;;10399977;28;20727;-69
2021/08/28 23:56:47;;;;;;;5.57;2.90;;;;;;;;;;10396966;28;20294;-70
